sensor_id;sensor_type;location;lat;lon;timestamp;P1;durP1;ratioP1;P2;durP2;ratioP2
18140;SDS011;9196;49.194;12.526;2022-12-18T00:02:08;53.45;;;28.42;;
18140;SDS011;9196;49.194;12.526;2022-12-18T00:04:35;39.35;;;24.10;;
18140;SDS011;9196;49.194;12.526;2022-12-18T00:07:03;49.20;;;26.67;;
18140;SDS011;9196;49.194;12.526;2022-12-18T00:09:30;51.25;;;25.20;;
18140;SDS011;9196;49.194;12.526;2022-12-18T00:11:57;44.75;;;25.75;;
18140;SDS011;9196;49.194;12.526;2022-12-18T00:14:23;37.40;;;22.75;;
18140;SDS011;9196;49.194;12.526;2022-12-18T00:16:50;42.17;;;23.80;;
18140;SDS011;9196;49.194;12.526;2022-12-18T00:19:17;37.75;;;22.27;;
18140;SDS011;9196;49.194;12.526;2022-12-18T00:21:44;39.58;;;23.70;;
18140;SDS011;9196;49.194;12.526;2022-12-18T00:24:12;37.78;;;22.48;;
18140;SDS011;9196;49.194;12.526;2022-12-18T00:26:38;42.38;;;24.38;;
18140;SDS011;9196;49.194;12.526;2022-12-18T00:29:06;40.25;;;23.13;;
18140;SDS011;9196;49.194;12.526;2022-12-18T00:31:34;38.10;;;22.17;;
18140;SDS011;9196;49.194;12.526;2022-12-18T00:34:01;31.20;;;20.02;;
18140;SDS011;9196;49.194;12.526;2022-12-18T00:36:28;44.47;;;25.48;;
18140;SDS011;9196;49.194;12.526;2022-12-18T00:38:57;34.72;;;21.88;;
18140;SDS011;9196;49.194;12.526;2022-12-18T00:41:26;33.75;;;21.00;;
18140;SDS011;9196;49.194;12.526;2022-12-18T00:44:12;34.95;;;20.92;;
18140;SDS011;9196;49.194;12.526;2022-12-18T00:46:40;26.52;;;18.05;;
18140;SDS011;9196;49.194;12.526;2022-12-18T00:49:07;30.92;;;18.73;;
18140;SDS011;9196;49.194;12.526;2022-12-18T00:51:34;33.22;;;19.60;;
18140;SDS011;9196;49.194;12.526;2022-12-18T00:54:01;29.17;;;16.27;;
18140;SDS011;9196;49.194;12.526;2022-12-18T00:56:29;26.08;;;16.05;;
18140;SDS011;9196;49.194;12.526;2022-12-18T00:58:56;24.40;;;16.13;;
18140;SDS011;9196;49.194;12.526;2022-12-18T01:01:23;31.10;;;18.10;;
18140;SDS011;9196;49.194;12.526;2022-12-18T01:03:49;31.92;;;18.27;;
18140;SDS011;9196;49.194;12.526;2022-12-18T01:06:16;31.70;;;14.57;;
18140;SDS011;9196;49.194;12.526;2022-12-18T01:08:43;32.92;;;17.90;;
18140;SDS011;9196;49.194;12.526;2022-12-18T01:11:11;29.02;;;17.48;;
18140;SDS011;9196;49.194;12.526;2022-12-18T01:13:41;32.97;;;17.17;;
18140;SDS011;9196;49.194;12.526;2022-12-18T01:16:08;27.00;;;15.43;;
18140;SDS011;9196;49.194;12.526;2022-12-18T01:18:37;24.40;;;14.68;;
18140;SDS011;9196;49.194;12.526;2022-12-18T01:21:05;24.50;;;14.38;;
18140;SDS011;9196;49.194;12.526;2022-12-18T01:23:33;23.33;;;15.50;;
18140;SDS011;9196;49.194;12.526;2022-12-18T01:26:03;20.98;;;12.90;;
18140;SDS011;9196;49.194;12.526;2022-12-18T01:28:31;26.88;;;14.38;;
18140;SDS011;9196;49.194;12.526;2022-12-18T01:31:09;21.40;;;14.68;;
18140;SDS011;9196;49.194;12.526;2022-12-18T01:33:37;21.67;;;14.00;;
18140;SDS011;9196;49.194;12.526;2022-12-18T01:36:04;21.75;;;13.20;;
18140;SDS011;9196;49.194;12.526;2022-12-18T01:38:31;20.88;;;13.65;;
18140;SDS011;9196;49.194;12.526;2022-12-18T01:40:58;20.02;;;13.52;;
18140;SDS011;9196;49.194;12.526;2022-12-18T01:43:40;27.85;;;14.60;;
18140;SDS011;9196;49.194;12.526;2022-12-18T01:46:07;25.77;;;15.05;;
18140;SDS011;9196;49.194;12.526;2022-12-18T01:48:36;22.77;;;13.63;;
18140;SDS011;9196;49.194;12.526;2022-12-18T01:51:04;21.65;;;13.20;;
18140;SDS011;9196;49.194;12.526;2022-12-18T01:53:33;25.70;;;15.13;;
18140;SDS011;9196;49.194;12.526;2022-12-18T01:56:01;26.45;;;15.38;;
18140;SDS011;9196;49.194;12.526;2022-12-18T01:58:30;26.50;;;13.00;;
18140;SDS011;9196;49.194;12.526;2022-12-18T02:01:03;27.40;;;14.82;;
18140;SDS011;9196;49.194;12.526;2022-12-18T02:03:31;23.73;;;13.43;;
18140;SDS011;9196;49.194;12.526;2022-12-18T02:05:59;27.35;;;15.88;;
18140;SDS011;9196;49.194;12.526;2022-12-18T02:08:33;22.92;;;13.88;;
18140;SDS011;9196;49.194;12.526;2022-12-18T02:11:05;23.00;;;13.73;;
18140;SDS011;9196;49.194;12.526;2022-12-18T02:13:39;25.63;;;14.60;;
18140;SDS011;9196;49.194;12.526;2022-12-18T02:16:10;21.08;;;14.18;;
18140;SDS011;9196;49.194;12.526;2022-12-18T02:18:47;27.55;;;14.98;;
18140;SDS011;9196;49.194;12.526;2022-12-18T02:21:19;26.02;;;13.70;;
18140;SDS011;9196;49.194;12.526;2022-12-18T02:23:55;23.27;;;14.55;;
18140;SDS011;9196;49.194;12.526;2022-12-18T02:26:30;22.65;;;14.00;;
18140;SDS011;9196;49.194;12.526;2022-12-18T02:29:03;26.63;;;13.88;;
18140;SDS011;9196;49.194;12.526;2022-12-18T02:31:35;23.15;;;13.45;;
18140;SDS011;9196;49.194;12.526;2022-12-18T02:34:06;21.42;;;12.60;;
18140;SDS011;9196;49.194;12.526;2022-12-18T02:36:35;26.42;;;14.65;;
18140;SDS011;9196;49.194;12.526;2022-12-18T02:39:05;25.48;;;15.80;;
18140;SDS011;9196;49.194;12.526;2022-12-18T02:41:36;26.45;;;14.27;;
18140;SDS011;9196;49.194;12.526;2022-12-18T02:44:06;28.13;;;13.30;;
18140;SDS011;9196;49.194;12.526;2022-12-18T02:46:36;26.42;;;14.00;;
18140;SDS011;9196;49.194;12.526;2022-12-18T02:49:12;26.00;;;14.48;;
18140;SDS011;9196;49.194;12.526;2022-12-18T02:51:48;29.00;;;15.00;;
18140;SDS011;9196;49.194;12.526;2022-12-18T02:54:21;24.83;;;13.98;;
18140;SDS011;9196;49.194;12.526;2022-12-18T02:57:05;22.08;;;13.48;;
18140;SDS011;9196;49.194;12.526;2022-12-18T02:59:39;29.50;;;16.20;;
18140;SDS011;9196;49.194;12.526;2022-12-18T03:02:15;28.98;;;14.35;;
18140;SDS011;9196;49.194;12.526;2022-12-18T03:04:48;31.75;;;14.13;;
18140;SDS011;9196;49.194;12.526;2022-12-18T03:07:19;25.00;;;13.68;;
18140;SDS011;9196;49.194;12.526;2022-12-18T03:09:50;22.58;;;13.88;;
18140;SDS011;9196;49.194;12.526;2022-12-18T03:12:21;24.40;;;14.15;;
18140;SDS011;9196;49.194;12.526;2022-12-18T03:14:55;24.52;;;14.52;;
18140;SDS011;9196;49.194;12.526;2022-12-18T03:17:27;22.65;;;13.30;;
18140;SDS011;9196;49.194;12.526;2022-12-18T03:19:56;23.00;;;14.00;;
18140;SDS011;9196;49.194;12.526;2022-12-18T03:22:29;28.35;;;15.57;;
18140;SDS011;9196;49.194;12.526;2022-12-18T03:24:58;24.50;;;14.18;;
18140;SDS011;9196;49.194;12.526;2022-12-18T03:27:29;21.73;;;13.65;;
18140;SDS011;9196;49.194;12.526;2022-12-18T03:30:00;24.05;;;13.43;;
18140;SDS011;9196;49.194;12.526;2022-12-18T03:32:33;21.23;;;13.00;;
18140;SDS011;9196;49.194;12.526;2022-12-18T03:35:05;22.30;;;13.77;;
18140;SDS011;9196;49.194;12.526;2022-12-18T03:37:34;28.35;;;14.02;;
18140;SDS011;9196;49.194;12.526;2022-12-18T03:40:02;20.92;;;12.57;;
18140;SDS011;9196;49.194;12.526;2022-12-18T03:42:32;23.20;;;13.63;;
18140;SDS011;9196;49.194;12.526;2022-12-18T03:45:06;23.20;;;12.80;;
18140;SDS011;9196;49.194;12.526;2022-12-18T03:47:39;23.35;;;13.02;;
18140;SDS011;9196;49.194;12.526;2022-12-18T03:50:16;23.67;;;13.45;;
18140;SDS011;9196;49.194;12.526;2022-12-18T03:52:48;21.10;;;13.27;;
18140;SDS011;9196;49.194;12.526;2022-12-18T03:55:18;20.60;;;12.30;;
18140;SDS011;9196;49.194;12.526;2022-12-18T03:57:48;24.15;;;12.65;;
18140;SDS011;9196;49.194;12.526;2022-12-18T04:00:17;23.50;;;13.10;;
18140;SDS011;9196;49.194;12.526;2022-12-18T04:02:46;24.52;;;14.13;;
18140;SDS011;9196;49.194;12.526;2022-12-18T04:05:17;32.17;;;14.60;;
18140;SDS011;9196;49.194;12.526;2022-12-18T04:07:47;27.98;;;15.02;;
18140;SDS011;9196;49.194;12.526;2022-12-18T04:10:15;24.90;;;14.65;;
18140;SDS011;9196;49.194;12.526;2022-12-18T04:12:43;25.83;;;14.25;;
18140;SDS011;9196;49.194;12.526;2022-12-18T04:15:11;30.40;;;14.02;;
18140;SDS011;9196;49.194;12.526;2022-12-18T04:17:38;26.80;;;13.38;;
18140;SDS011;9196;49.194;12.526;2022-12-18T04:20:11;31.77;;;14.38;;
18140;SDS011;9196;49.194;12.526;2022-12-18T04:22:38;28.85;;;14.10;;
18140;SDS011;9196;49.194;12.526;2022-12-18T04:25:05;24.23;;;13.63;;
18140;SDS011;9196;49.194;12.526;2022-12-18T04:27:32;20.73;;;12.25;;
18140;SDS011;9196;49.194;12.526;2022-12-18T04:29:59;28.77;;;15.50;;
18140;SDS011;9196;49.194;12.526;2022-12-18T04:32:27;20.55;;;12.40;;
18140;SDS011;9196;49.194;12.526;2022-12-18T04:34:54;27.02;;;14.13;;
18140;SDS011;9196;49.194;12.526;2022-12-18T04:37:20;19.55;;;11.88;;
18140;SDS011;9196;49.194;12.526;2022-12-18T04:39:47;22.90;;;12.55;;
18140;SDS011;9196;49.194;12.526;2022-12-18T04:42:14;21.95;;;11.55;;
18140;SDS011;9196;49.194;12.526;2022-12-18T04:44:41;21.20;;;13.07;;
18140;SDS011;9196;49.194;12.526;2022-12-18T04:47:07;27.50;;;12.77;;
18140;SDS011;9196;49.194;12.526;2022-12-18T04:49:35;22.13;;;13.18;;
18140;SDS011;9196;49.194;12.526;2022-12-18T04:52:02;22.13;;;13.57;;
18140;SDS011;9196;49.194;12.526;2022-12-18T04:54:29;18.27;;;11.68;;
18140;SDS011;9196;49.194;12.526;2022-12-18T04:56:56;24.52;;;13.63;;
18140;SDS011;9196;49.194;12.526;2022-12-18T04:59:23;34.72;;;17.30;;
18140;SDS011;9196;49.194;12.526;2022-12-18T05:01:49;41.28;;;19.52;;
18140;SDS011;9196;49.194;12.526;2022-12-18T05:04:16;28.02;;;16.00;;
18140;SDS011;9196;49.194;12.526;2022-12-18T05:06:44;28.27;;;16.02;;
18140;SDS011;9196;49.194;12.526;2022-12-18T05:09:11;30.17;;;15.18;;
18140;SDS011;9196;49.194;12.526;2022-12-18T05:11:38;30.90;;;15.63;;
18140;SDS011;9196;49.194;12.526;2022-12-18T05:14:05;23.23;;;13.07;;
18140;SDS011;9196;49.194;12.526;2022-12-18T05:16:31;21.52;;;13.15;;
18140;SDS011;9196;49.194;12.526;2022-12-18T05:18:58;22.58;;;13.68;;
18140;SDS011;9196;49.194;12.526;2022-12-18T05:21:25;23.65;;;12.80;;
18140;SDS011;9196;49.194;12.526;2022-12-18T05:23:53;25.98;;;13.70;;
18140;SDS011;9196;49.194;12.526;2022-12-18T05:26:20;19.83;;;13.20;;
18140;SDS011;9196;49.194;12.526;2022-12-18T05:28:47;29.50;;;14.20;;
18140;SDS011;9196;49.194;12.526;2022-12-18T05:31:14;24.80;;;12.52;;
18140;SDS011;9196;49.194;12.526;2022-12-18T05:33:41;25.08;;;15.15;;
18140;SDS011;9196;49.194;12.526;2022-12-18T05:36:08;24.30;;;13.30;;
18140;SDS011;9196;49.194;12.526;2022-12-18T05:38:36;24.85;;;13.25;;
18140;SDS011;9196;49.194;12.526;2022-12-18T05:41:05;21.20;;;12.75;;
18140;SDS011;9196;49.194;12.526;2022-12-18T05:43:33;23.10;;;13.57;;
18140;SDS011;9196;49.194;12.526;2022-12-18T05:46:03;25.73;;;13.45;;
18140;SDS011;9196;49.194;12.526;2022-12-18T05:48:31;22.95;;;12.10;;
18140;SDS011;9196;49.194;12.526;2022-12-18T05:51:02;16.27;;;10.48;;
18140;SDS011;9196;49.194;12.526;2022-12-18T05:53:32;22.48;;;11.68;;
18140;SDS011;9196;49.194;12.526;2022-12-18T05:55:59;22.23;;;11.75;;
18140;SDS011;9196;49.194;12.526;2022-12-18T05:58:29;19.08;;;10.65;;
18140;SDS011;9196;49.194;12.526;2022-12-18T06:00:56;21.92;;;13.23;;
18140;SDS011;9196;49.194;12.526;2022-12-18T06:03:23;23.15;;;11.73;;
18140;SDS011;9196;49.194;12.526;2022-12-18T06:05:50;21.65;;;13.15;;
18140;SDS011;9196;49.194;12.526;2022-12-18T06:08:17;18.85;;;11.95;;
18140;SDS011;9196;49.194;12.526;2022-12-18T06:10:49;25.02;;;12.95;;
18140;SDS011;9196;49.194;12.526;2022-12-18T06:13:17;21.45;;;11.40;;
18140;SDS011;9196;49.194;12.526;2022-12-18T06:15:45;25.35;;;14.00;;
18140;SDS011;9196;49.194;12.526;2022-12-18T06:18:12;22.85;;;12.95;;
18140;SDS011;9196;49.194;12.526;2022-12-18T06:20:39;26.23;;;13.25;;
18140;SDS011;9196;49.194;12.526;2022-12-18T06:23:06;30.30;;;14.98;;
18140;SDS011;9196;49.194;12.526;2022-12-18T06:25:36;24.88;;;13.27;;
18140;SDS011;9196;49.194;12.526;2022-12-18T06:28:04;25.33;;;15.70;;
18140;SDS011;9196;49.194;12.526;2022-12-18T06:30:31;35.05;;;16.02;;
18140;SDS011;9196;49.194;12.526;2022-12-18T06:33:02;21.42;;;13.65;;
18140;SDS011;9196;49.194;12.526;2022-12-18T06:35:29;22.98;;;12.88;;
18140;SDS011;9196;49.194;12.526;2022-12-18T06:38:03;25.30;;;11.73;;
18140;SDS011;9196;49.194;12.526;2022-12-18T06:40:30;23.35;;;12.23;;
18140;SDS011;9196;49.194;12.526;2022-12-18T06:42:57;25.48;;;13.55;;
18140;SDS011;9196;49.194;12.526;2022-12-18T06:45:24;23.80;;;12.18;;
18140;SDS011;9196;49.194;12.526;2022-12-18T06:47:51;23.73;;;12.45;;
18140;SDS011;9196;49.194;12.526;2022-12-18T06:50:20;24.75;;;11.93;;
18140;SDS011;9196;49.194;12.526;2022-12-18T06:52:47;22.23;;;10.88;;
18140;SDS011;9196;49.194;12.526;2022-12-18T06:55:14;26.63;;;13.10;;
18140;SDS011;9196;49.194;12.526;2022-12-18T06:57:40;22.70;;;12.25;;
18140;SDS011;9196;49.194;12.526;2022-12-18T07:00:08;20.73;;;12.20;;
18140;SDS011;9196;49.194;12.526;2022-12-18T07:02:35;23.17;;;11.23;;
18140;SDS011;9196;49.194;12.526;2022-12-18T07:05:02;25.50;;;12.57;;
18140;SDS011;9196;49.194;12.526;2022-12-18T07:07:30;17.65;;;10.00;;
18140;SDS011;9196;49.194;12.526;2022-12-18T07:09:57;23.63;;;11.57;;
18140;SDS011;9196;49.194;12.526;2022-12-18T07:12:24;24.60;;;12.82;;
18140;SDS011;9196;49.194;12.526;2022-12-18T07:14:50;19.40;;;12.23;;
18140;SDS011;9196;49.194;12.526;2022-12-18T07:17:17;23.00;;;11.65;;
18140;SDS011;9196;49.194;12.526;2022-12-18T07:19:44;21.55;;;11.73;;
18140;SDS011;9196;49.194;12.526;2022-12-18T07:22:11;26.65;;;13.63;;
18140;SDS011;9196;49.194;12.526;2022-12-18T07:24:39;25.65;;;14.68;;
18140;SDS011;9196;49.194;12.526;2022-12-18T07:27:06;22.65;;;11.65;;
18140;SDS011;9196;49.194;12.526;2022-12-18T07:29:32;20.92;;;11.85;;
18140;SDS011;9196;49.194;12.526;2022-12-18T07:31:59;19.60;;;11.80;;
18140;SDS011;9196;49.194;12.526;2022-12-18T07:34:26;18.85;;;12.13;;
18140;SDS011;9196;49.194;12.526;2022-12-18T07:36:53;20.33;;;12.00;;
18140;SDS011;9196;49.194;12.526;2022-12-18T07:39:20;19.23;;;11.18;;
18140;SDS011;9196;49.194;12.526;2022-12-18T07:41:48;20.73;;;11.20;;
18140;SDS011;9196;49.194;12.526;2022-12-18T07:44:35;23.92;;;12.27;;
18140;SDS011;9196;49.194;12.526;2022-12-18T07:47:02;21.17;;;11.88;;
18140;SDS011;9196;49.194;12.526;2022-12-18T07:49:29;20.58;;;10.55;;
18140;SDS011;9196;49.194;12.526;2022-12-18T07:51:56;20.23;;;10.43;;
18140;SDS011;9196;49.194;12.526;2022-12-18T07:54:24;19.05;;;10.90;;
18140;SDS011;9196;49.194;12.526;2022-12-18T07:56:52;17.48;;;10.82;;
18140;SDS011;9196;49.194;12.526;2022-12-18T07:59:19;11.60;;;7.82;;
18140;SDS011;9196;49.194;12.526;2022-12-18T08:01:46;15.38;;;8.45;;
18140;SDS011;9196;49.194;12.526;2022-12-18T08:04:13;10.55;;;7.38;;
18140;SDS011;9196;49.194;12.526;2022-12-18T08:06:40;9.25;;;6.60;;
18140;SDS011;9196;49.194;12.526;2022-12-18T08:09:07;10.20;;;7.88;;
18140;SDS011;9196;49.194;12.526;2022-12-18T08:11:35;12.77;;;8.48;;
18140;SDS011;9196;49.194;12.526;2022-12-18T08:14:03;9.88;;;7.40;;
18140;SDS011;9196;49.194;12.526;2022-12-18T08:16:30;8.30;;;6.93;;
18140;SDS011;9196;49.194;12.526;2022-12-18T08:18:57;11.27;;;6.78;;
18140;SDS011;9196;49.194;12.526;2022-12-18T08:21:25;10.02;;;7.35;;
18140;SDS011;9196;49.194;12.526;2022-12-18T08:23:53;16.42;;;8.65;;
18140;SDS011;9196;49.194;12.526;2022-12-18T08:26:22;17.40;;;9.07;;
18140;SDS011;9196;49.194;12.526;2022-12-18T08:28:50;10.30;;;7.75;;
18140;SDS011;9196;49.194;12.526;2022-12-18T08:31:18;13.52;;;8.30;;
18140;SDS011;9196;49.194;12.526;2022-12-18T08:33:47;14.32;;;7.80;;
18140;SDS011;9196;49.194;12.526;2022-12-18T08:36:15;12.02;;;8.10;;
18140;SDS011;9196;49.194;12.526;2022-12-18T08:38:42;8.63;;;7.28;;
18140;SDS011;9196;49.194;12.526;2022-12-18T08:41:11;13.32;;;8.90;;
18140;SDS011;9196;49.194;12.526;2022-12-18T08:43:39;14.15;;;7.43;;
18140;SDS011;9196;49.194;12.526;2022-12-18T08:46:26;12.23;;;8.95;;
18140;SDS011;9196;49.194;12.526;2022-12-18T08:48:56;12.50;;;8.40;;
18140;SDS011;9196;49.194;12.526;2022-12-18T08:51:23;12.75;;;8.60;;
18140;SDS011;9196;49.194;12.526;2022-12-18T08:53:50;16.63;;;9.98;;
18140;SDS011;9196;49.194;12.526;2022-12-18T08:56:17;21.00;;;11.95;;
18140;SDS011;9196;49.194;12.526;2022-12-18T08:58:44;16.42;;;8.60;;
18140;SDS011;9196;49.194;12.526;2022-12-18T09:01:11;20.08;;;8.50;;
18140;SDS011;9196;49.194;12.526;2022-12-18T09:03:40;14.63;;;9.55;;
18140;SDS011;9196;49.194;12.526;2022-12-18T09:06:07;14.23;;;9.15;;
18140;SDS011;9196;49.194;12.526;2022-12-18T09:08:34;15.75;;;9.32;;
18140;SDS011;9196;49.194;12.526;2022-12-18T09:11:01;14.25;;;9.30;;
18140;SDS011;9196;49.194;12.526;2022-12-18T09:13:28;14.70;;;8.32;;
18140;SDS011;9196;49.194;12.526;2022-12-18T09:15:55;14.68;;;9.57;;
18140;SDS011;9196;49.194;12.526;2022-12-18T09:18:22;12.90;;;7.82;;
18140;SDS011;9196;49.194;12.526;2022-12-18T09:20:51;19.80;;;9.20;;
18140;SDS011;9196;49.194;12.526;2022-12-18T09:23:18;12.05;;;7.72;;
18140;SDS011;9196;49.194;12.526;2022-12-18T09:25:45;14.52;;;8.65;;
18140;SDS011;9196;49.194;12.526;2022-12-18T09:28:12;10.80;;;7.03;;
18140;SDS011;9196;49.194;12.526;2022-12-18T09:30:41;9.65;;;6.95;;
18140;SDS011;9196;49.194;12.526;2022-12-18T09:33:09;10.00;;;6.03;;
18140;SDS011;9196;49.194;12.526;2022-12-18T09:35:36;12.85;;;7.40;;
18140;SDS011;9196;49.194;12.526;2022-12-18T09:38:06;11.55;;;7.70;;
18140;SDS011;9196;49.194;12.526;2022-12-18T09:40:35;10.52;;;7.93;;
18140;SDS011;9196;49.194;12.526;2022-12-18T09:43:10;14.00;;;9.50;;
18140;SDS011;9196;49.194;12.526;2022-12-18T09:45:42;14.88;;;9.00;;
18140;SDS011;9196;49.194;12.526;2022-12-18T09:48:14;16.05;;;8.80;;
18140;SDS011;9196;49.194;12.526;2022-12-18T09:50:44;16.70;;;8.80;;
18140;SDS011;9196;49.194;12.526;2022-12-18T09:53:14;11.43;;;7.90;;
18140;SDS011;9196;49.194;12.526;2022-12-18T09:55:45;8.65;;;7.07;;
18140;SDS011;9196;49.194;12.526;2022-12-18T09:58:14;13.45;;;9.40;;
18140;SDS011;9196;49.194;12.526;2022-12-18T10:00:46;12.70;;;8.32;;
18140;SDS011;9196;49.194;12.526;2022-12-18T10:03:14;12.23;;;7.88;;
18140;SDS011;9196;49.194;12.526;2022-12-18T10:05:43;10.07;;;7.07;;
18140;SDS011;9196;49.194;12.526;2022-12-18T10:08:21;9.88;;;7.50;;
18140;SDS011;9196;49.194;12.526;2022-12-18T10:10:53;10.00;;;7.45;;
18140;SDS011;9196;49.194;12.526;2022-12-18T10:13:25;10.40;;;7.20;;
18140;SDS011;9196;49.194;12.526;2022-12-18T10:16:03;9.95;;;7.47;;
18140;SDS011;9196;49.194;12.526;2022-12-18T10:18:44;13.20;;;8.55;;
18140;SDS011;9196;49.194;12.526;2022-12-18T10:21:25;12.88;;;8.30;;
18140;SDS011;9196;49.194;12.526;2022-12-18T10:24:01;16.75;;;11.30;;
18140;SDS011;9196;49.194;12.526;2022-12-18T10:26:36;10.45;;;7.82;;
18140;SDS011;9196;49.194;12.526;2022-12-18T10:29:03;16.33;;;9.02;;
18140;SDS011;9196;49.194;12.526;2022-12-18T10:31:34;11.65;;;8.38;;
18140;SDS011;9196;49.194;12.526;2022-12-18T10:34:01;14.57;;;9.30;;
18140;SDS011;9196;49.194;12.526;2022-12-18T10:36:28;14.57;;;10.10;;
18140;SDS011;9196;49.194;12.526;2022-12-18T10:38:56;17.02;;;9.52;;
18140;SDS011;9196;49.194;12.526;2022-12-18T10:41:42;16.92;;;10.52;;
18140;SDS011;9196;49.194;12.526;2022-12-18T10:44:10;12.63;;;9.02;;
18140;SDS011;9196;49.194;12.526;2022-12-18T10:46:45;16.63;;;11.32;;
18140;SDS011;9196;49.194;12.526;2022-12-18T10:49:18;14.35;;;9.32;;
18140;SDS011;9196;49.194;12.526;2022-12-18T10:51:47;18.40;;;10.10;;
18140;SDS011;9196;49.194;12.526;2022-12-18T10:54:17;16.63;;;11.23;;
18140;SDS011;9196;49.194;12.526;2022-12-18T10:56:47;16.73;;;10.63;;
18140;SDS011;9196;49.194;12.526;2022-12-18T10:59:14;17.77;;;10.45;;
18140;SDS011;9196;49.194;12.526;2022-12-18T11:01:47;17.95;;;11.30;;
18140;SDS011;9196;49.194;12.526;2022-12-18T11:04:17;16.80;;;10.30;;
18140;SDS011;9196;49.194;12.526;2022-12-18T11:06:53;19.67;;;11.45;;
18140;SDS011;9196;49.194;12.526;2022-12-18T11:09:24;20.40;;;10.88;;
18140;SDS011;9196;49.194;12.526;2022-12-18T11:11:52;15.27;;;9.18;;
18140;SDS011;9196;49.194;12.526;2022-12-18T11:14:22;19.15;;;9.85;;
18140;SDS011;9196;49.194;12.526;2022-12-18T11:16:51;15.85;;;10.05;;
18140;SDS011;9196;49.194;12.526;2022-12-18T11:19:26;18.13;;;10.38;;
18140;SDS011;9196;49.194;12.526;2022-12-18T11:21:57;14.85;;;9.20;;
18140;SDS011;9196;49.194;12.526;2022-12-18T11:24:27;17.83;;;9.98;;
18140;SDS011;9196;49.194;12.526;2022-12-18T11:26:57;12.70;;;7.88;;
18140;SDS011;9196;49.194;12.526;2022-12-18T11:29:35;8.77;;;6.82;;
18140;SDS011;9196;49.194;12.526;2022-12-18T11:35:13;15.13;;;8.68;;
18140;SDS011;9196;49.194;12.526;2022-12-18T11:37:46;10.68;;;6.45;;
18140;SDS011;9196;49.194;12.526;2022-12-18T11:40:17;8.00;;;5.90;;
18140;SDS011;9196;49.194;12.526;2022-12-18T11:42:50;9.45;;;7.70;;
18140;SDS011;9196;49.194;12.526;2022-12-18T11:45:26;11.82;;;6.65;;
18140;SDS011;9196;49.194;12.526;2022-12-18T11:47:57;11.57;;;7.28;;
18140;SDS011;9196;49.194;12.526;2022-12-18T11:50:29;9.48;;;6.70;;
18140;SDS011;9196;49.194;12.526;2022-12-18T11:53:00;10.73;;;7.80;;
18140;SDS011;9196;49.194;12.526;2022-12-18T11:55:30;9.75;;;6.55;;
18140;SDS011;9196;49.194;12.526;2022-12-18T11:58:07;10.18;;;7.80;;
18140;SDS011;9196;49.194;12.526;2022-12-18T12:00:43;9.70;;;7.32;;
18140;SDS011;9196;49.194;12.526;2022-12-18T12:03:21;9.43;;;7.05;;
18140;SDS011;9196;49.194;12.526;2022-12-18T12:06:06;11.07;;;7.38;;
18140;SDS011;9196;49.194;12.526;2022-12-18T12:08:42;11.65;;;8.88;;
18140;SDS011;9196;49.194;12.526;2022-12-18T12:11:22;8.80;;;7.90;;
18140;SDS011;9196;49.194;12.526;2022-12-18T12:14:01;9.20;;;7.18;;
18140;SDS011;9196;49.194;12.526;2022-12-18T12:16:42;12.75;;;7.72;;
18140;SDS011;9196;49.194;12.526;2022-12-18T12:19:20;12.63;;;7.47;;
18140;SDS011;9196;49.194;12.526;2022-12-18T12:22:02;10.88;;;8.30;;
18140;SDS011;9196;49.194;12.526;2022-12-18T12:24:42;13.30;;;7.78;;
18140;SDS011;9196;49.194;12.526;2022-12-18T12:27:20;15.60;;;8.82;;
18140;SDS011;9196;49.194;12.526;2022-12-18T12:29:58;17.88;;;10.15;;
18140;SDS011;9196;49.194;12.526;2022-12-18T12:32:33;16.98;;;10.15;;
18140;SDS011;9196;49.194;12.526;2022-12-18T12:35:14;22.35;;;11.00;;
18140;SDS011;9196;49.194;12.526;2022-12-18T12:37:54;17.60;;;10.23;;
18140;SDS011;9196;49.194;12.526;2022-12-18T12:40:32;16.50;;;9.85;;
18140;SDS011;9196;49.194;12.526;2022-12-18T12:43:02;13.82;;;9.13;;
18140;SDS011;9196;49.194;12.526;2022-12-18T12:45:41;11.27;;;7.45;;
18140;SDS011;9196;49.194;12.526;2022-12-18T12:48:16;12.05;;;8.07;;
18140;SDS011;9196;49.194;12.526;2022-12-18T12:50:45;10.80;;;7.55;;
18140;SDS011;9196;49.194;12.526;2022-12-18T12:53:16;17.58;;;9.07;;
18140;SDS011;9196;49.194;12.526;2022-12-18T12:55:49;15.00;;;8.23;;
18140;SDS011;9196;49.194;12.526;2022-12-18T12:58:20;15.35;;;8.77;;
18140;SDS011;9196;49.194;12.526;2022-12-18T13:00:55;12.88;;;9.05;;
18140;SDS011;9196;49.194;12.526;2022-12-18T13:03:34;15.45;;;9.45;;
18140;SDS011;9196;49.194;12.526;2022-12-18T13:06:11;12.85;;;9.20;;
18140;SDS011;9196;49.194;12.526;2022-12-18T13:08:51;15.40;;;10.10;;
18140;SDS011;9196;49.194;12.526;2022-12-18T13:11:37;19.52;;;10.60;;
18140;SDS011;9196;49.194;12.526;2022-12-18T13:14:25;16.58;;;10.52;;
18140;SDS011;9196;49.194;12.526;2022-12-18T13:19:42;18.23;;;10.68;;
18140;SDS011;9196;49.194;12.526;2022-12-18T13:22:20;26.52;;;12.45;;
18140;SDS011;9196;49.194;12.526;2022-12-18T13:24:48;24.95;;;12.15;;
18140;SDS011;9196;49.194;12.526;2022-12-18T13:36:14;18.58;;;11.55;;
18140;SDS011;9196;49.194;12.526;2022-12-18T13:38:55;20.63;;;13.82;;
18140;SDS011;9196;49.194;12.526;2022-12-18T13:41:48;22.35;;;12.88;;
18140;SDS011;9196;49.194;12.526;2022-12-18T13:44:22;17.15;;;10.63;;
18140;SDS011;9196;49.194;12.526;2022-12-18T13:46:53;24.42;;;14.82;;
18140;SDS011;9196;49.194;12.526;2022-12-18T13:49:21;26.17;;;13.77;;
18140;SDS011;9196;49.194;12.526;2022-12-18T13:51:52;21.08;;;12.63;;
18140;SDS011;9196;49.194;12.526;2022-12-18T13:54:21;22.65;;;11.70;;
18140;SDS011;9196;49.194;12.526;2022-12-18T13:56:54;21.55;;;12.50;;
18140;SDS011;9196;49.194;12.526;2022-12-18T13:59:22;23.63;;;13.00;;
18140;SDS011;9196;49.194;12.526;2022-12-18T14:01:51;22.70;;;13.35;;
18140;SDS011;9196;49.194;12.526;2022-12-18T14:04:22;21.58;;;13.55;;
18140;SDS011;9196;49.194;12.526;2022-12-18T14:06:57;28.85;;;12.68;;
18140;SDS011;9196;49.194;12.526;2022-12-18T14:09:30;32.58;;;16.20;;
18140;SDS011;9196;49.194;12.526;2022-12-18T14:12:00;31.92;;;15.50;;
18140;SDS011;9196;49.194;12.526;2022-12-18T14:14:46;32.35;;;16.80;;
18140;SDS011;9196;49.194;12.526;2022-12-18T14:17:16;30.00;;;14.70;;
18140;SDS011;9196;49.194;12.526;2022-12-18T14:19:44;24.92;;;14.95;;
18140;SDS011;9196;49.194;12.526;2022-12-18T14:22:16;24.40;;;14.13;;
18140;SDS011;9196;49.194;12.526;2022-12-18T14:24:45;28.80;;;14.98;;
18140;SDS011;9196;49.194;12.526;2022-12-18T14:27:13;26.38;;;14.07;;
18140;SDS011;9196;49.194;12.526;2022-12-18T14:29:47;34.22;;;16.20;;
18140;SDS011;9196;49.194;12.526;2022-12-18T14:32:16;30.67;;;16.38;;
18140;SDS011;9196;49.194;12.526;2022-12-18T14:34:45;28.35;;;15.35;;
18140;SDS011;9196;49.194;12.526;2022-12-18T14:37:13;33.95;;;16.77;;
18140;SDS011;9196;49.194;12.526;2022-12-18T14:39:51;30.98;;;15.27;;
18140;SDS011;9196;49.194;12.526;2022-12-18T14:42:22;26.23;;;15.70;;
18140;SDS011;9196;49.194;12.526;2022-12-18T14:47:54;36.75;;;17.20;;
18140;SDS011;9196;49.194;12.526;2022-12-18T14:50:21;31.60;;;15.98;;
18140;SDS011;9196;49.194;12.526;2022-12-18T14:52:48;29.75;;;16.80;;
18140;SDS011;9196;49.194;12.526;2022-12-18T14:55:16;31.58;;;17.45;;
18140;SDS011;9196;49.194;12.526;2022-12-18T14:57:43;36.38;;;18.58;;
18140;SDS011;9196;49.194;12.526;2022-12-18T15:00:15;37.75;;;18.52;;
18140;SDS011;9196;49.194;12.526;2022-12-18T15:02:44;32.58;;;17.20;;